sensor_id;sensor_type;location;lat;lon;timestamp;pressure;altitude;pressure_sealevel;temperature;humidity
3968;BME280;9221;42.646;23.380;2023-04-05T00:00:28;94038.25;;;1.17;90.83
3968;BME280;9221;42.646;23.380;2023-04-05T00:02:56;94004.78;;;1.25;90.68
3968;BME280;9221;42.646;23.380;2023-04-05T00:05:22;94006.22;;;1.29;91.33
3968;BME280;9221;42.646;23.380;2023-04-05T00:07:55;93992.53;;;1.27;91.12
3968;BME280;9221;42.646;23.380;2023-04-05T00:10:21;94016.19;;;1.35;91.11
3968;BME280;9221;42.646;23.380;2023-04-05T00:12:46;94002.31;;;1.24;90.45
3968;BME280;9221;42.646;23.380;2023-04-05T00:15:11;93992.13;;;1.21;90.22
3968;BME280;9221;42.646;23.380;2023-04-05T00:17:37;94003.84;;;1.26;91.24
3968;BME280;9221;42.646;23.380;2023-04-05T00:20:02;94000.22;;;1.29;91.10
3968;BME280;9221;42.646;23.380;2023-04-05T00:22:31;93988.22;;;1.15;91.31
3968;BME280;9221;42.646;23.380;2023-04-05T00:25:00;93990.25;;;1.23;90.39
3968;BME280;9221;42.646;23.380;2023-04-05T00:27:26;93940.94;;;0.86;90.61
3968;BME280;9221;42.646;23.380;2023-04-05T00:29:51;94017.63;;;1.40;90.74
3968;BME280;9221;42.646;23.380;2023-04-05T00:32:17;93953.44;;;1.05;90.70
3968;BME280;9221;42.646;23.380;2023-04-05T00:34:42;94019.28;;;1.41;90.68
3968;BME280;9221;42.646;23.380;2023-04-05T00:37:08;94018.50;;;1.27;90.60
3968;BME280;9221;42.646;23.380;2023-04-05T00:39:33;93993.78;;;1.22;90.83
3968;BME280;9221;42.646;23.380;2023-04-05T00:42:01;94031.97;;;1.32;90.68
3968;BME280;9221;42.646;23.380;2023-04-05T00:44:27;94023.72;;;1.27;90.40
3968;BME280;9221;42.646;23.380;2023-04-05T00:46:54;94019.94;;;1.31;90.34
3968;BME280;9221;42.646;23.380;2023-04-05T00:49:20;93953.78;;;0.87;90.17
3968;BME280;9221;42.646;23.380;2023-04-05T00:51:46;93950.03;;;0.91;90.55
3968;BME280;9221;42.646;23.380;2023-04-05T00:54:12;94012.03;;;1.33;90.11
3968;BME280;9221;42.646;23.380;2023-04-05T00:56:39;94037.16;;;1.32;89.75
3968;BME280;9221;42.646;23.380;2023-04-05T00:59:05;94016.63;;;1.29;89.72
3968;BME280;9221;42.646;23.380;2023-04-05T01:01:31;94019.72;;;1.34;89.63
3968;BME280;9221;42.646;23.380;2023-04-05T01:04:03;94012.63;;;1.37;89.03
3968;BME280;9221;42.646;23.380;2023-04-05T01:09:16;93954.94;;;0.96;88.70
3968;BME280;9221;42.646;23.380;2023-04-05T01:11:46;94007.03;;;1.30;89.17
3968;BME280;9221;42.646;23.380;2023-04-05T01:14:13;94028.84;;;1.40;88.37
3968;BME280;9221;42.646;23.380;2023-04-05T01:16:38;94053.31;;;1.25;88.54
3968;BME280;9221;42.646;23.380;2023-04-05T01:19:03;93990.19;;;0.98;88.50
3968;BME280;9221;42.646;23.380;2023-04-05T01:27:15;94006.84;;;1.33;87.22
3968;BME280;9221;42.646;23.380;2023-04-05T01:29:56;94015.88;;;0.90;87.41
3968;BME280;9221;42.646;23.380;2023-04-05T01:35:58;94027.06;;;1.41;87.27
3968;BME280;9221;42.646;23.380;2023-04-05T01:38:27;94002.84;;;1.16;87.08
3968;BME280;9221;42.646;23.380;2023-04-05T01:40:53;94024.47;;;1.41;87.68
3968;BME280;9221;42.646;23.380;2023-04-05T01:43:19;94017.94;;;1.35;87.33
3968;BME280;9221;42.646;23.380;2023-04-05T01:45:45;94040.44;;;1.47;87.29
3968;BME280;9221;42.646;23.380;2023-04-05T01:48:12;94021.34;;;1.48;87.36
3968;BME280;9221;42.646;23.380;2023-04-05T01:50:37;94047.44;;;1.47;87.99
3968;BME280;9221;42.646;23.380;2023-04-05T01:53:03;94012.00;;;1.46;87.44
3968;BME280;9221;42.646;23.380;2023-04-05T01:55:28;94020.28;;;1.51;86.82
3968;BME280;9221;42.646;23.380;2023-04-05T01:57:54;94061.88;;;1.51;87.16
3968;BME280;9221;42.646;23.380;2023-04-05T02:00:21;94024.88;;;1.47;87.02
3968;BME280;9221;42.646;23.380;2023-04-05T02:02:46;94031.50;;;1.51;86.90
3968;BME280;9221;42.646;23.380;2023-04-05T02:05:12;94033.06;;;1.54;86.99
3968;BME280;9221;42.646;23.380;2023-04-05T02:07:37;94049.16;;;1.59;86.89
3968;BME280;9221;42.646;23.380;2023-04-05T02:10:03;93965.13;;;1.23;86.82
3968;BME280;9221;42.646;23.380;2023-04-05T02:12:29;94011.56;;;1.52;87.04
3968;BME280;9221;42.646;23.380;2023-04-05T02:14:54;93867.28;;;0.62;87.16
3968;BME280;9221;42.646;23.380;2023-04-05T02:17:20;94019.91;;;1.68;86.84
3968;BME280;9221;42.646;23.380;2023-04-05T02:19:46;94030.97;;;1.59;86.45
3968;BME280;9221;42.646;23.380;2023-04-05T02:22:12;94078.44;;;1.61;86.60
3968;BME280;9221;42.646;23.380;2023-04-05T02:24:37;93980.03;;;1.32;86.27
3968;BME280;9221;42.646;23.380;2023-04-05T02:27:03;94027.72;;;1.68;86.91
3968;BME280;9221;42.646;23.380;2023-04-05T02:29:28;94026.56;;;1.73;86.38
3968;BME280;9221;42.646;23.380;2023-04-05T02:31:56;94035.75;;;1.65;86.32
3968;BME280;9221;42.646;23.380;2023-04-05T02:34:21;94009.91;;;1.51;86.42
3968;BME280;9221;42.646;23.380;2023-04-05T02:36:51;93987.13;;;1.30;86.77
3968;BME280;9221;42.646;23.380;2023-04-05T02:39:16;93947.72;;;1.12;86.88
3968;BME280;9221;42.646;23.380;2023-04-05T02:41:42;94003.50;;;1.44;87.09
3968;BME280;9221;42.646;23.380;2023-04-05T02:44:07;94010.72;;;1.51;87.03
3968;BME280;9221;42.646;23.380;2023-04-05T02:46:33;93966.75;;;1.24;86.87
3968;BME280;9221;42.646;23.380;2023-04-05T02:48:58;93967.50;;;1.26;86.66
3968;BME280;9221;42.646;23.380;2023-04-05T02:51:24;94019.13;;;1.55;87.23
3968;BME280;9221;42.646;23.380;2023-04-05T02:53:50;93973.19;;;1.31;87.01
3968;BME280;9221;42.646;23.380;2023-04-05T02:56:16;94003.31;;;1.58;86.79
3968;BME280;9221;42.646;23.380;2023-04-05T02:58:41;94022.06;;;1.75;86.89
3968;BME280;9221;42.646;23.380;2023-04-05T03:01:07;94077.00;;;1.57;86.94
3968;BME280;9221;42.646;23.380;2023-04-05T03:03:33;94024.06;;;1.71;86.55
3968;BME280;9221;42.646;23.380;2023-04-05T03:06:02;94023.84;;;1.74;86.44
3968;BME280;9221;42.646;23.380;2023-04-05T03:08:38;94069.06;;;1.72;86.75
3968;BME280;9221;42.646;23.380;2023-04-05T03:11:06;94112.97;;;1.63;86.55
3968;BME280;9221;42.646;23.380;2023-04-05T03:13:32;93991.31;;;1.68;86.75
3968;BME280;9221;42.646;23.380;2023-04-05T03:15:58;94016.44;;;1.81;86.37
3968;BME280;9221;42.646;23.380;2023-04-05T03:18:23;94019.72;;;1.83;86.38
3968;BME280;9221;42.646;23.380;2023-04-05T03:20:54;93965.22;;;1.46;86.39
3968;BME280;9221;42.646;23.380;2023-04-05T03:23:28;93950.91;;;1.40;86.47
3968;BME280;9221;42.646;23.380;2023-04-05T03:26:03;94022.53;;;1.56;86.66
3968;BME280;9221;42.646;23.380;2023-04-05T03:28:30;93982.38;;;1.48;86.64
3968;BME280;9221;42.646;23.380;2023-04-05T03:30:58;94011.06;;;1.71;86.46
3968;BME280;9221;42.646;23.380;2023-04-05T03:33:24;93970.25;;;1.36;86.20
3968;BME280;9221;42.646;23.380;2023-04-05T03:35:49;94012.22;;;1.67;86.91
3968;BME280;9221;42.646;23.380;2023-04-05T03:38:15;93993.03;;;1.57;86.97
3968;BME280;9221;42.646;23.380;2023-04-05T03:40:40;93967.13;;;1.44;87.27
3968;BME280;9221;42.646;23.380;2023-04-05T03:43:06;94027.88;;;1.78;86.95
3968;BME280;9221;42.646;23.380;2023-04-05T03:45:32;94065.19;;;1.77;87.41
3968;BME280;9221;42.646;23.380;2023-04-05T03:47:58;94074.03;;;1.50;87.06
3968;BME280;9221;42.646;23.380;2023-04-05T03:50:24;93956.25;;;1.01;87.98
3968;BME280;9221;42.646;23.380;2023-04-05T03:52:51;94036.00;;;1.74;88.45
3968;BME280;9221;42.646;23.380;2023-04-05T03:55:16;94036.59;;;1.77;88.86
3968;BME280;9221;42.646;23.380;2023-04-05T03:57:42;94027.75;;;1.80;89.31
3968;BME280;9221;42.646;23.380;2023-04-05T04:00:08;93913.28;;;0.97;89.26
3968;BME280;9221;42.646;23.380;2023-04-05T04:02:46;93981.75;;;1.45;89.39
3968;BME280;9221;42.646;23.380;2023-04-05T04:05:12;94033.06;;;1.78;88.95
3968;BME280;9221;42.646;23.380;2023-04-05T04:07:38;94059.44;;;1.85;89.30
3968;BME280;9221;42.646;23.380;2023-04-05T04:10:04;93993.69;;;1.47;90.13
3968;BME280;9221;42.646;23.380;2023-04-05T04:12:30;93987.69;;;1.47;90.48
3968;BME280;9221;42.646;23.380;2023-04-05T04:14:55;94049.94;;;1.73;90.71
3968;BME280;9221;42.646;23.380;2023-04-05T04:17:32;94074.25;;;1.72;91.22
3968;BME280;9221;42.646;23.380;2023-04-05T04:19:58;94004.84;;;1.37;91.28
3968;BME280;9221;42.646;23.380;2023-04-05T04:22:25;94051.22;;;1.67;92.35
3968;BME280;9221;42.646;23.380;2023-04-05T04:24:57;93990.00;;;1.01;92.60
3968;BME280;9221;42.646;23.380;2023-04-05T04:27:27;94032.13;;;1.55;92.03
3968;BME280;9221;42.646;23.380;2023-04-05T04:29:53;94059.72;;;1.69;92.11
3968;BME280;9221;42.646;23.380;2023-04-05T04:32:27;94031.91;;;1.58;92.14
3968;BME280;9221;42.646;23.380;2023-04-05T04:35:12;94061.38;;;1.70;91.47
3968;BME280;9221;42.646;23.380;2023-04-05T04:37:46;94003.81;;;1.39;91.67
3968;BME280;9221;42.646;23.380;2023-04-05T04:40:13;94046.41;;;1.74;91.92
3968;BME280;9221;42.646;23.380;2023-04-05T04:42:42;93979.47;;;1.16;91.12
3968;BME280;9221;42.646;23.380;2023-04-05T04:45:15;94018.50;;;1.27;91.00
3968;BME280;9221;42.646;23.380;2023-04-05T04:47:42;93982.53;;;1.34;90.35
3968;BME280;9221;42.646;23.380;2023-04-05T04:50:08;94058.03;;;1.81;90.60
3968;BME280;9221;42.646;23.380;2023-04-05T04:52:34;94073.78;;;1.91;90.64
3968;BME280;9221;42.646;23.380;2023-04-05T04:55:00;94100.88;;;1.99;90.56
3968;BME280;9221;42.646;23.380;2023-04-05T04:57:27;94069.19;;;1.94;90.31
3968;BME280;9221;42.646;23.380;2023-04-05T04:59:52;93906.38;;;1.09;90.10
3968;BME280;9221;42.646;23.380;2023-04-05T05:02:25;94067.25;;;2.09;89.88
3968;BME280;9221;42.646;23.380;2023-04-05T05:04:50;94003.81;;;1.63;89.03
3968;BME280;9221;42.646;23.380;2023-04-05T05:07:16;94060.63;;;2.05;88.77
3968;BME280;9221;42.646;23.380;2023-04-05T05:09:43;94085.38;;;1.98;87.16
3968;BME280;9221;42.646;23.380;2023-04-05T05:12:08;94074.81;;;1.88;86.75
3968;BME280;9221;42.646;23.380;2023-04-05T05:14:34;94010.31;;;1.45;86.61
3968;BME280;9221;42.646;23.380;2023-04-05T05:16:59;94015.31;;;1.48;87.42
3968;BME280;9221;42.646;23.380;2023-04-05T05:19:25;94069.41;;;1.91;87.70
3968;BME280;9221;42.646;23.380;2023-04-05T05:21:50;94076.75;;;1.97;87.23
3968;BME280;9221;42.646;23.380;2023-04-05T05:24:18;94035.78;;;1.77;87.18
3968;BME280;9221;42.646;23.380;2023-04-05T05:26:43;94057.28;;;1.79;86.62
3968;BME280;9221;42.646;23.380;2023-04-05T05:29:09;93997.44;;;1.43;87.01
3968;BME280;9221;42.646;23.380;2023-04-05T05:31:34;94070.84;;;1.95;87.13
3968;BME280;9221;42.646;23.380;2023-04-05T05:34:00;94018.75;;;1.73;86.27
3968;BME280;9221;42.646;23.380;2023-04-05T05:36:26;94002.63;;;1.56;85.15
3968;BME280;9221;42.646;23.380;2023-04-05T05:38:52;94079.91;;;2.14;84.38
3968;BME280;9221;42.646;23.380;2023-04-05T05:41:18;94077.44;;;2.12;83.81
3968;BME280;9221;42.646;23.380;2023-04-05T05:43:43;94110.22;;;1.78;84.39
3968;BME280;9221;42.646;23.380;2023-04-05T05:46:09;93998.38;;;1.66;84.67
3968;BME280;9221;42.646;23.380;2023-04-05T05:48:34;94063.00;;;1.84;84.54
3968;BME280;9221;42.646;23.380;2023-04-05T05:51:01;94055.78;;;2.12;84.11
3968;BME280;9221;42.646;23.380;2023-04-05T05:53:26;94079.16;;;2.36;84.13
3968;BME280;9221;42.646;23.380;2023-04-05T05:55:52;94070.59;;;2.23;83.75
3968;BME280;9221;42.646;23.380;2023-04-05T05:58:17;94008.22;;;1.98;83.45
3968;BME280;9221;42.646;23.380;2023-04-05T06:00:43;94071.50;;;2.46;83.67
3968;BME280;9221;42.646;23.380;2023-04-05T06:03:09;94050.03;;;2.31;83.89
3968;BME280;9221;42.646;23.380;2023-04-05T06:05:35;93955.91;;;1.79;83.15
3968;BME280;9221;42.646;23.380;2023-04-05T06:08:00;93944.41;;;1.59;83.32
3968;BME280;9221;42.646;23.380;2023-04-05T06:10:28;94032.44;;;2.34;83.16
3968;BME280;9221;42.646;23.380;2023-04-05T06:12:53;94019.44;;;2.34;81.94
3968;BME280;9221;42.646;23.380;2023-04-05T06:15:19;94109.94;;;2.78;81.67
3968;BME280;9221;42.646;23.380;2023-04-05T06:17:45;94108.03;;;2.80;81.32
3968;BME280;9221;42.646;23.380;2023-04-05T06:20:10;94110.19;;;2.86;81.37
3968;BME280;9221;42.646;23.380;2023-04-05T06:22:37;94036.06;;;2.79;80.66
3968;BME280;9221;42.646;23.380;2023-04-05T06:25:05;94082.00;;;2.80;79.70
3968;BME280;9221;42.646;23.380;2023-04-05T06:27:30;94083.69;;;3.26;79.78
3968;BME280;9221;42.646;23.380;2023-04-05T06:29:58;94093.16;;;3.38;79.17
3968;BME280;9221;42.646;23.380;2023-04-05T06:32:24;94086.78;;;3.31;77.90
3968;BME280;9221;42.646;23.380;2023-04-05T06:34:49;94106.41;;;3.47;78.06
3968;BME280;9221;42.646;23.380;2023-04-05T06:37:15;94078.47;;;3.49;77.58
3968;BME280;9221;42.646;23.380;2023-04-05T06:39:40;94071.00;;;3.44;76.67
3968;BME280;9221;42.646;23.380;2023-04-05T06:42:05;94032.06;;;3.20;76.35
3968;BME280;9221;42.646;23.380;2023-04-05T06:44:31;93950.72;;;2.60;76.41
3968;BME280;9221;42.646;23.380;2023-04-05T06:46:56;94087.44;;;3.67;76.31
3968;BME280;9221;42.646;23.380;2023-04-05T06:49:21;94074.91;;;3.50;76.12
3968;BME280;9221;42.646;23.380;2023-04-05T06:51:48;94114.13;;;3.71;75.46
3968;BME280;9221;42.646;23.380;2023-04-05T06:54:13;94110.56;;;3.72;76.05
3968;BME280;9221;42.646;23.380;2023-04-05T06:56:39;94050.50;;;3.51;76.39
3968;BME280;9221;42.646;23.380;2023-04-05T06:59:04;94090.41;;;3.63;75.26
3968;BME280;9221;42.646;23.380;2023-04-05T07:01:30;94118.03;;;3.65;74.32
3968;BME280;9221;42.646;23.380;2023-04-05T07:03:55;94137.94;;;3.66;74.18
3968;BME280;9221;42.646;23.380;2023-04-05T07:06:21;94143.63;;;3.60;74.06
3968;BME280;9221;42.646;23.380;2023-04-05T07:08:48;94167.31;;;3.68;73.66
3968;BME280;9221;42.646;23.380;2023-04-05T07:11:13;94135.56;;;3.75;73.45
3968;BME280;9221;42.646;23.380;2023-04-05T07:13:39;94138.78;;;3.67;72.73
3968;BME280;9221;42.646;23.380;2023-04-05T07:16:05;94066.16;;;3.39;73.13
3968;BME280;9221;42.646;23.380;2023-04-05T07:18:30;94191.63;;;3.80;72.64
3968;BME280;9221;42.646;23.380;2023-04-05T07:20:57;94102.06;;;3.47;72.41
3968;BME280;9221;42.646;23.380;2023-04-05T07:23:26;94140.28;;;3.58;73.38
3968;BME280;9221;42.646;23.380;2023-04-05T07:25:53;94150.97;;;3.55;73.48
3968;BME280;9221;42.646;23.380;2023-04-05T07:28:18;94143.38;;;3.63;73.44
3968;BME280;9221;42.646;23.380;2023-04-05T07:30:44;94148.94;;;3.70;72.59
3968;BME280;9221;42.646;23.380;2023-04-05T07:33:09;94131.19;;;3.52;72.52
3968;BME280;9221;42.646;23.380;2023-04-05T07:35:35;94141.16;;;3.47;72.42
3968;BME280;9221;42.646;23.380;2023-04-05T07:38:01;94104.06;;;3.32;72.76
3968;BME280;9221;42.646;23.380;2023-04-05T07:40:26;94160.44;;;3.67;73.50
3968;BME280;9221;42.646;23.380;2023-04-05T07:42:52;94094.34;;;3.23;72.31
3968;BME280;9221;42.646;23.380;2023-04-05T07:45:17;94138.41;;;3.60;72.84
3968;BME280;9221;42.646;23.380;2023-04-05T07:47:43;94153.69;;;3.53;72.11
3968;BME280;9221;42.646;23.380;2023-04-05T07:50:08;94153.81;;;3.52;73.14
3968;BME280;9221;42.646;23.380;2023-04-05T07:52:36;94100.69;;;2.74;73.05
3968;BME280;9221;42.646;23.380;2023-04-05T07:55:01;94146.13;;;3.39;73.34
3968;BME280;9221;42.646;23.380;2023-04-05T07:57:27;94154.63;;;3.52;72.71
3968;BME280;9221;42.646;23.380;2023-04-05T07:59:53;94197.66;;;3.47;73.63
3968;BME280;9221;42.646;23.380;2023-04-05T08:02:20;94153.69;;;3.53;73.07
3968;BME280;9221;42.646;23.380;2023-04-05T08:04:45;94170.16;;;3.54;72.48
3968;BME280;9221;42.646;23.380;2023-04-05T08:07:11;94198.38;;;3.49;73.14
3968;BME280;9221;42.646;23.380;2023-04-05T08:09:36;94184.63;;;3.69;73.12
3968;BME280;9221;42.646;23.380;2023-04-05T08:12:02;94103.72;;;3.26;72.88
3968;BME280;9221;42.646;23.380;2023-04-05T08:14:28;94158.31;;;3.61;72.36
3968;BME280;9221;42.646;23.380;2023-04-05T08:16:53;94110.22;;;3.20;71.54
3968;BME280;9221;42.646;23.380;2023-04-05T08:19:19;94188.88;;;3.59;71.71
3968;BME280;9221;42.646;23.380;2023-04-05T08:21:45;94185.34;;;3.49;71.39
3968;BME280;9221;42.646;23.380;2023-04-05T08:24:10;94139.81;;;3.30;71.91
3968;BME280;9221;42.646;23.380;2023-04-05T08:26:35;94118.50;;;3.25;72.02
3968;BME280;9221;42.646;23.380;2023-04-05T08:29:01;94167.47;;;3.55;71.44
3968;BME280;9221;42.646;23.380;2023-04-05T08:31:26;94114.47;;;3.21;71.72
3968;BME280;9221;42.646;23.380;2023-04-05T08:33:52;94206.19;;;3.71;72.37
3968;BME280;9221;42.646;23.380;2023-04-05T08:36:17;94136.88;;;3.46;72.36
3968;BME280;9221;42.646;23.380;2023-04-05T08:38:43;94189.97;;;3.79;72.54
3968;BME280;9221;42.646;23.380;2023-04-05T08:41:19;94210.97;;;3.66;72.23
3968;BME280;9221;42.646;23.380;2023-04-05T08:44:02;94177.06;;;3.78;71.98
3968;BME280;9221;42.646;23.380;2023-04-05T08:46:30;94227.91;;;3.83;71.91
3968;BME280;9221;42.646;23.380;2023-04-05T08:48:57;94293.91;;;3.72;71.45
3968;BME280;9221;42.646;23.380;2023-04-05T08:51:24;94195.53;;;3.63;71.75
3968;BME280;9221;42.646;23.380;2023-04-05T08:53:51;94205.97;;;3.63;72.34
3968;BME280;9221;42.646;23.380;2023-04-05T08:56:35;94213.28;;;3.58;73.19
3968;BME280;9221;42.646;23.380;2023-04-05T08:59:03;94216.63;;;3.60;73.17
3968;BME280;9221;42.646;23.380;2023-04-05T09:01:30;94252.31;;;3.60;72.52
3968;BME280;9221;42.646;23.380;2023-04-05T09:03:59;94148.81;;;3.15;72.01
3968;BME280;9221;42.646;23.380;2023-04-05T09:06:26;94213.31;;;3.81;72.23
3968;BME280;9221;42.646;23.380;2023-04-05T09:08:55;94230.84;;;3.56;72.85
3968;BME280;9221;42.646;23.380;2023-04-05T09:11:21;94214.03;;;3.94;72.97
3968;BME280;9221;42.646;23.380;2023-04-05T09:13:47;94191.50;;;3.93;73.88
3968;BME280;9221;42.646;23.380;2023-04-05T09:16:16;94194.69;;;3.85;74.26
3968;BME280;9221;42.646;23.380;2023-04-05T09:18:41;94221.13;;;3.92;73.84
3968;BME280;9221;42.646;23.380;2023-04-05T09:21:07;94172.31;;;3.60;72.80
3968;BME280;9221;42.646;23.380;2023-04-05T09:23:33;94215.44;;;3.76;72.76
3968;BME280;9221;42.646;23.380;2023-04-05T09:25:59;94223.28;;;3.87;73.85
3968;BME280;9221;42.646;23.380;2023-04-05T09:28:40;94223.63;;;3.94;73.77
3968;BME280;9221;42.646;23.380;2023-04-05T09:31:08;94216.66;;;3.83;72.83
3968;BME280;9221;42.646;23.380;2023-04-05T09:33:34;94210.84;;;3.79;73.58
3968;BME280;9221;42.646;23.380;2023-04-05T09:36:01;94147.66;;;3.53;74.14
3968;BME280;9221;42.646;23.380;2023-04-05T09:38:42;94198.84;;;3.88;72.78
3968;BME280;9221;42.646;23.380;2023-04-05T09:41:08;94259.53;;;4.13;73.30
3968;BME280;9221;42.646;23.380;2023-04-05T09:43:39;94197.66;;;4.15;71.58
3968;BME280;9221;42.646;23.380;2023-04-05T09:46:05;94230.13;;;4.22;71.72
3968;BME280;9221;42.646;23.380;2023-04-05T09:48:47;94216.19;;;4.44;71.02
3968;BME280;9221;42.646;23.380;2023-04-05T09:51:17;94194.03;;;4.50;71.38
3968;BME280;9221;42.646;23.380;2023-04-05T09:54:08;94207.59;;;4.97;69.63
3968;BME280;9221;42.646;23.380;2023-04-05T09:56:36;94190.69;;;5.13;68.37
3968;BME280;9221;42.646;23.380;2023-04-05T09:59:07;94206.41;;;5.43;67.50
3968;BME280;9221;42.646;23.380;2023-04-05T10:01:34;94166.94;;;5.25;67.54
3968;BME280;9221;42.646;23.380;2023-04-05T10:04:00;94214.44;;;5.52;67.02
3968;BME280;9221;42.646;23.380;2023-04-05T10:06:36;94232.88;;;5.50;66.35
3968;BME280;9221;42.646;23.380;2023-04-05T10:09:03;94145.72;;;5.40;65.69
3968;BME280;9221;42.646;23.380;2023-04-05T10:11:29;94200.44;;;5.84;64.86
3968;BME280;9221;42.646;23.380;2023-04-05T10:13:55;94186.78;;;5.59;64.84
3968;BME280;9221;42.646;23.380;2023-04-05T10:16:25;94149.06;;;5.52;64.88
3968;BME280;9221;42.646;23.380;2023-04-05T10:18:52;94219.75;;;5.92;64.87
3968;BME280;9221;42.646;23.380;2023-04-05T10:21:27;94155.22;;;5.20;64.01
3968;BME280;9221;42.646;23.380;2023-04-05T10:24:01;94152.47;;;4.79;65.06
3968;BME280;9221;42.646;23.380;2023-04-05T10:26:44;94138.53;;;4.57;64.37
3968;BME280;9221;42.646;23.380;2023-04-05T10:29:16;94199.06;;;4.95;64.30
3968;BME280;9221;42.646;23.380;2023-04-05T10:31:54;94167.66;;;4.53;64.68
3968;BME280;9221;42.646;23.380;2023-04-05T10:34:44;94247.19;;;4.93;65.34
3968;BME280;9221;42.646;23.380;2023-04-05T10:40:10;94204.25;;;4.74;64.36
3968;BME280;9221;42.646;23.380;2023-04-05T10:42:44;94097.25;;;3.86;65.00
3968;BME280;9221;42.646;23.380;2023-04-05T10:45:17;94151.03;;;4.54;65.37
3968;BME280;9221;42.646;23.380;2023-04-05T10:47:48;94160.91;;;4.71;64.66
3968;BME280;9221;42.646;23.380;2023-04-05T10:50:24;94202.53;;;5.17;64.04
3968;BME280;9221;42.646;23.380;2023-04-05T10:52:52;94224.69;;;5.43;63.79
3968;BME280;9221;42.646;23.380;2023-04-05T10:55:19;94259.16;;;5.49;62.77
3968;BME280;9221;42.646;23.380;2023-04-05T10:57:46;94219.84;;;5.60;62.70
3968;BME280;9221;42.646;23.380;2023-04-05T11:00:14;94212.34;;;5.46;62.69
3968;BME280;9221;42.646;23.380;2023-04-05T11:02:40;94176.63;;;5.14;62.71
3968;BME280;9221;42.646;23.380;2023-04-05T11:05:29;94225.34;;;5.57;63.64
3968;BME280;9221;42.646;23.380;2023-04-05T11:08:02;94196.56;;;5.57;62.36
3968;BME280;9221;42.646;23.380;2023-04-05T11:10:28;94181.88;;;5.66;61.68
3968;BME280;9221;42.646;23.380;2023-04-05T11:20:53;94238.63;;;6.27;60.89
3968;BME280;9221;42.646;23.380;2023-04-05T11:23:29;94219.63;;;6.25;60.61
3968;BME280;9221;42.646;23.380;2023-04-05T11:26:02;94260.19;;;6.50;60.08
3968;BME280;9221;42.646;23.380;2023-04-05T11:28:36;94172.72;;;6.12;58.56
3968;BME280;9221;42.646;23.380;2023-04-05T11:31:17;94185.50;;;6.56;59.31
3968;BME280;9221;42.646;23.380;2023-04-05T11:36:08;94210.13;;;6.43;58.55
3968;BME280;9221;42.646;23.380;2023-04-05T11:38:35;94217.34;;;6.61;58.42
3968;BME280;9221;42.646;23.380;2023-04-05T11:41:14;94262.19;;;6.68;58.76
3968;BME280;9221;42.646;23.380;2023-04-05T11:43:47;94239.50;;;6.37;59.15
3968;BME280;9221;42.646;23.380;2023-04-05T11:46:16;94256.16;;;6.36;59.37
3968;BME280;9221;42.646;23.380;2023-04-05T11:48:48;94218.72;;;6.05;59.94
3968;BME280;9221;42.646;23.380;2023-04-05T11:51:15;94212.53;;;5.85;60.67
3968;BME280;9221;42.646;23.380;2023-04-05T11:53:45;94243.50;;;5.80;60.38
3968;BME280;9221;42.646;23.380;2023-04-05T11:56:11;94160.25;;;5.64;60.49
3968;BME280;9221;42.646;23.380;2023-04-05T11:58:40;94235.25;;;6.05;60.94
3968;BME280;9221;42.646;23.380;2023-04-05T12:01:06;94164.28;;;5.47;60.85
3968;BME280;9221;42.646;23.380;2023-04-05T12:03:32;94234.34;;;5.95;60.94
3968;BME280;9221;42.646;23.380;2023-04-05T12:06:00;94212.09;;;6.01;60.98
3968;BME280;9221;42.646;23.380;2023-04-05T12:08:44;94230.69;;;5.98;60.84
3968;BME280;9221;42.646;23.380;2023-04-05T12:11:27;94252.16;;;6.01;61.44
3968;BME280;9221;42.646;23.380;2023-04-05T12:13:57;94145.03;;;5.79;60.91
3968;BME280;9221;42.646;23.380;2023-04-05T12:16:23;94166.81;;;5.89;60.75
3968;BME280;9221;42.646;23.380;2023-04-05T12:18:59;94216.53;;;6.51;61.27
3968;BME280;9221;42.646;23.380;2023-04-05T12:22:24;94280.63;;;6.47;60.15
3968;BME280;9221;42.646;23.380;2023-04-05T12:24:50;94154.59;;;5.58;60.02
3968;BME280;9221;42.646;23.380;2023-04-05T12:27:15;94264.78;;;6.17;61.09
3968;BME280;9221;42.646;23.380;2023-04-05T12:29:41;94061.81;;;4.91;61.01
3968;BME280;9221;42.646;23.380;2023-04-05T12:32:06;94153.06;;;5.87;61.33
3968;BME280;9221;42.646;23.380;2023-04-05T12:34:35;94145.50;;;5.93;62.04
3968;BME280;9221;42.646;23.380;2023-04-05T12:37:00;94215.75;;;6.80;60.32
3968;BME280;9221;42.646;23.380;2023-04-05T12:39:28;94244.59;;;7.38;58.44
3968;BME280;9221;42.646;23.380;2023-04-05T12:42:00;94168.13;;;7.14;57.74
3968;BME280;9221;42.646;23.380;2023-04-05T12:44:29;94224.63;;;7.65;57.79
3968;BME280;9221;42.646;23.380;2023-04-05T12:47:00;94222.31;;;7.52;58.87
3968;BME280;9221;42.646;23.380;2023-04-05T12:49:38;94195.13;;;7.43;58.38
3968;BME280;9221;42.646;23.380;2023-04-05T12:52:04;94224.53;;;8.04;57.19
3968;BME280;9221;42.646;23.380;2023-04-05T12:54:29;94168.78;;;7.83;55.87
3968;BME280;9221;42.646;23.380;2023-04-05T12:57:00;94208.38;;;7.52;56.42
3968;BME280;9221;42.646;23.380;2023-04-05T12:59:28;94223.59;;;7.19;57.20
3968;BME280;9221;42.646;23.380;2023-04-05T13:01:53;94219.03;;;6.82;58.53
3968;BME280;9221;42.646;23.380;2023-04-05T13:04:19;94196.81;;;6.47;59.37
3968;BME280;9221;42.646;23.380;2023-04-05T13:06:44;94281.78;;;6.83;59.05
3968;BME280;9221;42.646;23.380;2023-04-05T13:09:11;94171.16;;;6.60;58.69
3968;BME280;9221;42.646;23.380;2023-04-05T13:11:36;94185.75;;;6.53;59.07
3968;BME280;9221;42.646;23.380;2023-04-05T13:14:02;94325.41;;;6.94;59.95
3968;BME280;9221;42.646;23.380;2023-04-05T13:16:27;94239.91;;;6.93;58.02
3968;BME280;9221;42.646;23.380;2023-04-05T13:18:53;94232.00;;;6.73;58.14
3968;BME280;9221;42.646;23.380;2023-04-05T13:21:18;94286.13;;;7.14;58.09
3968;BME280;9221;42.646;23.380;2023-04-05T13:23:43;94244.31;;;7.32;56.85
3968;BME280;9221;42.646;23.380;2023-04-05T13:26:09;94234.66;;;6.93;56.62
3968;BME280;9221;42.646;23.380;2023-04-05T13:28:34;94222.72;;;6.50;58.41
3968;BME280;9221;42.646;23.380;2023-04-05T13:31:01;94241.97;;;6.29;58.84
3968;BME280;9221;42.646;23.380;2023-04-05T13:33:27;94178.34;;;5.76;59.94
3968;BME280;9221;42.646;23.380;2023-04-05T13:35:52;94220.75;;;5.70;59.89
3968;BME280;9221;42.646;23.380;2023-04-05T13:38:18;94238.19;;;5.70;60.53
3968;BME280;9221;42.646;23.380;2023-04-05T13:40:43;94220.66;;;5.82;61.43
3968;BME280;9221;42.646;23.380;2023-04-05T13:43:09;94162.22;;;5.40;60.21
3968;BME280;9221;42.646;23.380;2023-04-05T13:45:34;94239.41;;;5.66;61.08
3968;BME280;9221;42.646;23.380;2023-04-05T13:48:01;94233.63;;;5.62;61.02
3968;BME280;9221;42.646;23.380;2023-04-05T13:50:27;94239.41;;;5.66;61.23